createdAt,value
2023-04-28T00:04:42.691Z,100695.88
2023-04-28T00:09:43.589Z,100689.84
2023-04-28T00:14:46.312Z,100683.81
2023-04-28T00:19:49.512Z,100688.97
2023-04-28T00:24:50.459Z,100684.59
2023-04-28T00:29:51.420Z,100674.28
2023-04-28T00:34:53.534Z,100666.53
2023-04-28T00:39:56.393Z,100661.34
2023-04-28T00:44:57.320Z,100649.16
2023-04-28T00:49:59.496Z,100640.56
2023-04-28T00:55:00.558Z,100637.88
2023-04-28T01:00:02.179Z,100636.91
2023-04-28T01:05:05.105Z,100625.72
2023-04-28T01:10:08.169Z,100617.16
2023-04-28T01:15:17.811Z,100619.75
2023-04-28T01:20:21.056Z,100614.53
2023-04-28T01:25:23.158Z,100608.47
2023-04-28T01:30:23.849Z,100608.53
2023-04-28T01:35:24.654Z,100604.16
2023-04-28T01:40:26.745Z,100592.94
2023-04-28T01:45:27.386Z,100592.91
2023-04-28T01:50:28.049Z,100588.56
2023-04-28T01:55:30.030Z,100575.59
2023-04-28T02:00:31.890Z,100579.03
2023-04-28T02:05:32.866Z,100582.41
2023-04-28T02:10:35.186Z,100572.94
2023-04-28T02:15:36.229Z,100575.50
2023-04-28T02:20:37.012Z,100566.84
2023-04-28T02:25:38.968Z,100565.13
2023-04-28T02:30:41.964Z,100565.06
2023-04-28T02:35:43.159Z,100554.75
2023-04-28T02:40:45.167Z,100554.72
2023-04-28T02:45:45.837Z,100550.41
2023-04-28T02:50:47.092Z,100534.09
2023-04-28T02:55:49.710Z,100528.13
2023-04-28T03:00:51.604Z,100527.38
2023-04-28T03:05:52.537Z,100522.28
2023-04-28T03:10:54.669Z,100521.47
2023-04-28T03:15:56.151Z,100518.97
2023-04-28T03:20:57.190Z,100504.34
2023-04-28T03:26:01.407Z,100491.38
2023-04-28T03:31:03.440Z,100486.22
2023-04-28T03:36:05.636Z,100484.50
2023-04-28T03:41:07.772Z,100486.22
2023-04-28T03:46:26.978Z,100478.53
2023-04-28T03:51:29.058Z,100481.06
2023-04-28T03:56:31.504Z,100491.34
2023-04-28T04:01:35.258Z,100487.16
2023-04-28T04:06:36.016Z,100482.91
2023-04-28T04:11:38.470Z,100471.88
2023-04-28T04:16:39.223Z,100468.50
2023-04-28T04:21:40.028Z,100455.72
2023-04-28T04:26:42.794Z,100443.88
2023-04-28T04:32:03.863Z,100431.97
2023-04-28T04:37:04.724Z,100438.88
2023-04-28T04:42:22.666Z,100431.09
2023-04-28T04:47:35.355Z,100428.53
2023-04-28T04:52:36.240Z,100427.66
2023-04-28T04:57:38.749Z,100418.25
2023-04-28T05:02:39.702Z,100417.38
2023-04-28T05:07:40.770Z,100414.78
2023-04-28T05:12:46.797Z,100415.59
2023-04-28T05:17:51.599Z,100404.34
2023-04-28T05:22:56.361Z,100397.44
2023-04-28T05:28:04.954Z,100377.47
2023-04-28T05:33:06.877Z,100373.94
2023-04-28T05:38:08.231Z,100365.13
2023-04-28T05:43:10.454Z,100374.31
2023-04-28T05:48:11.483Z,100368.84
2023-04-28T05:53:14.427Z,100368.75
2023-04-28T05:58:16.514Z,100361.72
2023-04-28T06:03:19.273Z,100356.47
2023-04-28T06:08:20.642Z,100356.28
2023-04-28T06:13:22.748Z,100356.47
2023-04-28T06:18:24.564Z,100363.41
2023-04-28T06:23:25.301Z,100350.63
2023-04-28T06:28:28.271Z,100346.09
2023-04-28T06:33:28.915Z,100343.66
2023-04-28T06:38:29.588Z,100338.56
2023-04-28T06:43:32.376Z,100336.56
2023-04-28T06:48:55.995Z,100329.84
2023-04-28T06:53:56.745Z,100332.41
2023-04-28T06:58:59.053Z,100325.78
2023-04-28T07:03:59.810Z,100326.00
2023-04-28T07:09:00.639Z,100320.16
2023-04-28T07:14:02.634Z,100320.81
2023-04-28T07:19:03.517Z,100302.44
2023-04-28T07:24:04.310Z,100302.38
2023-04-28T07:29:06.397Z,100303.25
2023-04-28T07:34:07.253Z,100294.00
2023-04-28T07:39:08.015Z,100295.06
2023-04-28T07:44:10.427Z,100279.63
2023-04-28T07:49:11.183Z,100272.25
2023-04-28T07:54:11.971Z,100276.56
2023-04-28T07:59:14.003Z,100263.91
2023-04-28T08:04:15.174Z,100265.66
2023-04-28T08:09:16.373Z,100258.47
2023-04-28T08:14:18.648Z,100247.88
2023-04-28T08:19:20.179Z,100248.78
2023-04-28T08:24:20.811Z,100246.50
2023-04-28T08:29:22.996Z,100245.69
2023-04-28T08:34:23.638Z,100250.84
2023-04-28T08:39:26.428Z,100244.84
2023-04-28T08:44:29.034Z,100228.44
2023-04-28T08:49:37.176Z,100214.13
2023-04-28T08:54:40.523Z,100208.78
2023-04-28T08:59:42.857Z,100208.75
2023-04-28T09:04:43.927Z,100202.06
2023-04-28T09:09:45.351Z,100205.59
2023-04-28T09:14:59.410Z,100202.03
2023-04-28T09:20:00.057Z,100195.38
2023-04-28T09:25:12.392Z,100188.53
2023-04-28T09:30:14.812Z,100186.66
2023-04-28T09:35:15.524Z,100186.75
2023-04-28T09:40:16.792Z,100188.50
2023-04-28T09:45:18.915Z,100179.59
2023-04-28T09:50:20.284Z,100174.38
2023-04-28T09:55:21.373Z,100175.84
2023-04-28T10:00:24.711Z,100174.66
2023-04-28T10:05:26.109Z,100175.34
2023-04-28T10:10:28.316Z,100174.13
2023-04-28T10:15:30.391Z,100169.50
2023-04-28T10:20:31.309Z,100160.41
2023-04-28T10:25:35.976Z,100170.03
2023-04-28T10:30:38.145Z,100160.34
2023-04-28T10:35:43.856Z,100179.00
2023-04-28T10:40:45.820Z,100167.38
2023-04-28T10:46:06.256Z,100183.44
2023-04-28T10:51:29.904Z,100197.25
2023-04-28T10:56:30.607Z,100199.72
2023-04-28T11:01:34.952Z,100209.06
2023-04-28T11:06:37.484Z,100217.06
2023-04-28T11:11:39.533Z,100224.66
2023-04-28T11:16:50.476Z,100217.72
2023-04-28T11:22:01.998Z,100234.84
2023-04-28T11:27:03.287Z,100233.34
2023-04-28T11:32:06.247Z,100238.38
2023-04-28T11:37:08.627Z,100232.22
2023-04-28T11:42:11.446Z,100239.81
2023-04-28T11:47:13.490Z,100236.22
2023-04-28T11:52:17.043Z,100236.56
2023-04-28T11:57:23.213Z,100249.53
2023-04-28T12:02:30.302Z,100226.97
2023-04-28T12:07:31.328Z,100223.66
2023-04-28T12:17:39.955Z,100215.66
2023-04-28T12:22:48.347Z,100204.09
2023-04-28T12:28:02.301Z,100212.25
2023-04-28T12:33:04.714Z,100208.84
2023-04-28T12:38:05.854Z,100199.38
2023-04-28T12:43:06.602Z,100200.84
2023-04-28T12:48:08.806Z,100202.75
2023-04-28T12:53:11.654Z,100190.41
2023-04-28T12:58:12.434Z,100195.50
2023-04-28T13:03:15.858Z,100197.50
2023-04-28T13:08:16.798Z,100199.34
2023-04-28T13:13:19.728Z,100184.78
2023-04-28T13:18:23.494Z,100183.88
2023-04-28T13:23:24.338Z,100182.13
2023-04-28T13:28:25.572Z,100177.06
2023-04-28T13:33:31.251Z,100164.66
2023-04-28T13:38:33.056Z,100157.84
2023-04-28T13:43:33.986Z,100144.56
2023-04-28T13:48:36.688Z,100138.38
2023-04-28T13:53:38.029Z,100127.25
2023-04-28T13:58:39.036Z,100126.88
2023-04-28T14:03:41.526Z,100123.63
2023-04-28T14:08:42.309Z,100121.94
2023-04-28T14:13:42.977Z,100115.53
2023-04-28T14:18:45.078Z,100109.16
2023-04-28T14:23:45.783Z,100099.72
2023-04-28T14:28:46.482Z,100097.41
2023-04-28T14:33:48.460Z,100087.94
2023-04-28T14:38:49.136Z,100084.22
2023-04-28T14:43:50.017Z,100084.66
2023-04-28T14:48:52.461Z,100081.19
2023-04-28T14:53:53.131Z,100082.44
2023-04-28T14:58:54.240Z,100066.34
2023-04-28T15:03:56.924Z,100074.19
2023-04-28T15:08:57.735Z,100056.09
2023-04-28T15:13:58.382Z,100048.44
2023-04-28T15:19:00.380Z,100051.53
2023-04-28T15:24:01.106Z,100045.16
2023-04-28T15:29:01.831Z,100046.44
2023-04-28T15:34:03.849Z,100043.28
2023-04-28T15:39:06.304Z,100041.59
2023-04-28T15:44:07.452Z,100036.09
2023-04-28T15:49:09.891Z,100028.44
2023-04-28T15:54:10.630Z,100025.38
2023-04-28T15:59:14.913Z,100012.63
2023-04-28T16:04:16.965Z,100015.31
2023-04-28T16:09:17.777Z,100019.53
2023-04-28T16:14:18.458Z,100019.69
2023-04-28T16:19:21.038Z,100010.94
2023-04-28T16:24:25.177Z,100010.25
2023-04-28T16:29:26.498Z,100012.19
2023-04-28T16:34:28.486Z,100009.16
2023-04-28T16:39:29.136Z,100012.81
2023-04-28T16:44:30.521Z,100007.13
2023-04-28T16:49:32.581Z,99995.78
2023-04-28T16:54:34.002Z,99984.66
2023-04-28T16:59:34.698Z,99981.94
2023-04-28T17:04:37.815Z,99978.47
2023-04-28T17:09:38.669Z,99983.63
2023-04-28T17:14:39.535Z,99978.41
2023-04-28T17:19:42.226Z,99982.03
2023-04-28T17:24:44.695Z,99971.72
2023-04-28T17:29:45.440Z,99974.22
2023-04-28T17:34:47.490Z,99974.88
2023-04-28T17:39:50.499Z,99975.81
2023-04-28T17:44:51.850Z,99973.44
2023-04-28T17:49:55.399Z,99962.34
2023-04-28T17:54:57.390Z,99951.19
2023-04-28T17:59:58.028Z,99956.59
2023-04-28T18:05:00.027Z,99969.69
2023-04-28T18:10:01.015Z,99975.94
2023-04-28T18:15:02.518Z,99967.00
2023-04-28T18:20:06.977Z,99967.19
2023-04-28T18:25:08.497Z,99974.53
2023-04-28T18:30:10.286Z,99974.34
2023-04-28T18:35:12.649Z,99972.66
2023-04-28T18:40:13.365Z,99969.88
2023-04-28T18:45:14.923Z,99979.47
2023-04-28T18:50:17.057Z,99976.97
2023-04-28T18:55:17.750Z,99969.31
2023-04-28T19:00:19.101Z,99983.94
2023-04-28T19:05:21.089Z,99979.16
2023-04-28T19:10:21.901Z,99988.88
2023-04-28T19:15:22.601Z,99975.38
2023-04-28T19:20:24.803Z,99986.56
2023-04-28T19:25:25.543Z,99975.38
2023-04-28T19:30:26.784Z,99974.66
2023-04-28T19:35:28.905Z,99979.13
2023-04-28T19:40:30.442Z,99978.25
2023-04-28T19:45:31.085Z,99980.91
2023-04-28T19:50:33.578Z,99974.94
2023-04-28T19:55:34.243Z,99969.59
2023-04-28T20:00:35.953Z,99959.94
2023-04-28T20:05:39.739Z,99971.28
2023-04-28T20:10:40.804Z,99966.97
2023-04-28T20:15:41.889Z,99961.88
2023-04-28T20:20:44.507Z,99944.66
2023-04-28T20:25:47.051Z,99956.84
2023-04-28T20:30:47.683Z,99960.13
2023-04-28T20:35:49.726Z,99953.09
2023-04-28T20:40:50.432Z,99940.38
2023-04-28T20:45:51.125Z,99932.31
2023-04-28T20:50:55.204Z,99922.00
2023-04-28T20:55:55.990Z,99919.06
2023-04-28T21:00:56.664Z,99919.66
2023-04-28T21:05:58.673Z,99929.41
2023-04-28T21:10:59.346Z,99918.16
2023-04-28T21:16:00.158Z,99929.97
2023-04-28T21:21:02.195Z,99925.56
2023-04-28T21:26:02.959Z,99928.69
2023-04-28T21:31:04.937Z,99916.31
2023-04-28T21:36:09.042Z,99921.38
2023-04-28T21:41:12.305Z,99913.56
2023-04-28T21:46:13.361Z,99907.69
2023-04-28T21:51:16.440Z,99913.72
2023-04-28T21:56:17.309Z,99912.69
2023-04-28T22:01:18.452Z,99925.09
2023-04-28T22:06:20.962Z,99901.63
2023-04-28T22:11:21.628Z,99903.50
2023-04-28T22:16:22.687Z,99902.81
2023-04-28T22:21:25.365Z,99884.50
2023-04-28T22:26:25.992Z,99878.31
2023-04-28T22:31:26.660Z,99873.00
2023-04-28T22:36:28.761Z,99866.81
2023-04-28T22:41:29.409Z,99885.13
2023-04-28T22:46:30.415Z,99904.31
2023-04-28T22:51:32.724Z,99904.34
2023-04-28T22:56:33.433Z,99903.56
2023-04-28T23:01:34.205Z,99902.88
2023-04-28T23:06:36.824Z,99892.38
2023-04-28T23:11:37.479Z,99886.13
2023-04-28T23:16:38.312Z,99872.09
2023-04-28T23:21:40.327Z,99868.50
2023-04-28T23:26:41.209Z,99867.75
2023-04-28T23:31:41.970Z,99859.31
2023-04-28T23:36:44.069Z,99848.38
2023-04-28T23:41:44.735Z,99835.59
2023-04-28T23:46:45.354Z,99843.50
2023-04-28T23:51:47.348Z,99852.16
2023-04-28T23:56:47.995Z,99854.00
